Time;durP1;ratioP1;P1;durP2;ratioP2;P2;SDS_P1;SDS_P2;PMS_P1;PMS_P2;Temp;Humidity;BMP_temperature;BMP_pressure;BME280_temperature;BME280_humidity;BME280_pressure;Samples;Min_cycle;Max_cycle;Signal;HPM_P1;HPM_P2
2022/04/02 00:02:12;;;;;;;5.78;5.28;;;16.90;41.00;;;;;;6160063;23;20683;-71
2022/04/02 00:04:39;;;;;;;5.82;5.43;;;16.90;41.10;;;;;;6159559;23;20243;-71
2022/04/02 00:07:08;;;;;;;5.53;5.13;;;16.90;41.00;;;;;;6185649;23;20188;-71
2022/04/02 00:09:35;;;;;;;5.50;5.10;;;16.80;41.00;;;;;;6159755;23;20176;-71
2022/04/02 00:12:02;;;;;;;5.22;4.93;;;16.80;41.00;;;;;;6159557;23;20173;-71
2022/04/02 00:14:29;;;;;;;5.40;5.00;;;16.80;41.00;;;;;;6160210;23;20171;-71
2022/04/02 00:16:56;;;;;;;5.40;5.00;;;16.80;41.00;;;;;;6159456;23;20199;-71
2022/04/02 00:19:23;;;;;;;5.95;5.45;;;16.80;41.00;;;;;;6186169;23;20266;-71
2022/04/02 00:21:50;;;;;;;5.22;4.82;;;16.80;41.10;;;;;;6159779;23;20176;-71
2022/04/02 00:24:19;;;;;;;4.95;4.60;;;16.80;41.00;;;;;;6159769;23;20242;-71
2022/04/02 00:26:46;;;;;;;5.10;4.70;;;16.80;41.00;;;;;;6159590;23;20495;-71
2022/04/02 00:29:13;;;;;;;5.50;5.10;;;16.70;41.10;;;;;;6159622;23;20196;-71
2022/04/02 00:31:40;;;;;;;4.78;4.38;;;16.70;41.20;;;;;;6186017;23;20160;-71
2022/04/02 00:34:08;;;;;;;5.30;4.90;;;16.70;41.20;;;;;;6185934;23;20192;-71
2022/04/02 00:36:37;;;;;;;5.05;4.68;;;16.70;41.10;;;;;;6159194;23;20184;-71
2022/04/02 00:39:06;;;;;;;5.35;4.95;;;16.70;41.10;;;;;;6159658;23;20176;-71
2022/04/02 00:41:35;;;;;;;5.43;5.03;;;16.70;41.10;;;;;;6159594;23;20183;-71
2022/04/02 00:44:09;;;;;;;5.30;4.90;;;16.70;41.00;;;;;;6185797;23;20192;-71
2022/04/02 00:46:36;;;;;;;5.47;5.07;;;16.70;41.70;;;;;;6159969;23;20651;-70
2022/04/02 00:49:04;;;;;;;5.55;5.15;;;16.70;41.20;;;;;;6160684;23;20177;-71
2022/04/02 00:51:32;;;;;;;5.53;5.13;;;16.70;41.20;;;;;;6159441;23;20207;-72
2022/04/02 00:53:59;;;;;;;5.45;5.03;;;16.60;41.00;;;;;;6159450;23;20653;-71
2022/04/02 00:56:26;;;;;;;5.47;5.07;;;16.60;41.10;;;;;;6159621;23;20279;-71
2022/04/02 00:58:54;;;;;;;5.63;5.13;;;16.60;41.00;;;;;;6162973;23;20160;-71
2022/04/02 01:01:22;;;;;;;5.10;4.75;;;16.60;41.00;;;;;;6159730;23;20243;-71
2022/04/02 01:03:50;;;;;;;5.40;5.00;;;16.60;41.10;;;;;;6159898;23;20172;-71
2022/04/02 01:06:20;;;;;;;5.30;4.90;;;16.60;41.00;;;;;;6159272;23;20196;-71
2022/04/02 01:08:49;;;;;;;5.18;4.78;;;16.60;41.30;;;;;;6159422;23;20642;-70
2022/04/02 01:11:16;;;;;;;4.82;4.53;;;16.60;41.20;;;;;;6159358;23;20621;-71
2022/04/02 01:13:48;;;;;;;5.18;4.88;;;16.60;41.20;;;;;;6161122;23;20167;-71
2022/04/02 01:16:20;;;;;;;4.93;4.63;;;16.60;41.20;;;;;;6161442;23;20188;-70
2022/04/02 01:18:50;;;;;;;4.85;4.50;;;16.60;41.20;;;;;;6161343;23;20623;-71
2022/04/02 01:21:23;;;;;;;5.15;4.75;;;16.60;41.30;;;;;;6161310;23;20247;-71
2022/04/02 01:23:57;;;;;;;5.03;4.63;;;16.50;41.20;;;;;;6162133;23;20531;-71
2022/04/02 01:26:25;;;;;;;5.20;4.80;;;16.50;41.00;;;;;;6187520;23;20204;-71
2022/04/02 01:29:00;;;;;;;5.10;4.70;;;16.50;41.30;;;;;;6161205;23;20604;-71
2022/04/02 01:31:35;;;;;;;5.07;4.65;;;16.50;41.20;;;;;;6161106;23;20230;-71
2022/04/02 01:34:03;;;;;;;5.20;4.80;;;16.50;41.20;;;;;;6161286;23;20180;-71
2022/04/02 01:36:32;;;;;;;5.13;4.72;;;16.50;41.30;;;;;;6160957;23;20196;-70
2022/04/02 01:39:12;;;;;;;5.10;4.70;;;16.50;41.20;;;;;;6161441;23;20179;-71
2022/04/02 01:41:41;;;;;;;4.80;4.50;;;16.50;41.20;;;;;;6161107;23;20172;-72
2022/04/02 01:44:09;;;;;;;4.80;4.50;;;16.50;41.20;;;;;;6160750;23;20172;-71
2022/04/02 01:46:36;;;;;;;4.78;4.43;;;16.50;41.30;;;;;;6160748;23;20199;-71
2022/04/02 01:49:03;;;;;;;5.00;4.60;;;16.50;41.30;;;;;;6160826;23;20176;-71
2022/04/02 01:51:31;;;;;;;5.60;5.20;;;16.50;41.20;;;;;;6162443;23;20187;-70
2022/04/02 01:53:58;;;;;;;5.60;5.20;;;16.40;41.20;;;;;;6161396;23;20168;-71
2022/04/02 01:56:26;;;;;;;5.15;4.70;;;16.40;41.20;;;;;;6160957;23;20276;-71
2022/04/02 01:58:58;;;;;;;4.80;4.50;;;16.40;41.20;;;;;;6161906;23;20282;-71
2022/04/02 02:01:29;;;;;;;5.00;4.60;;;16.40;41.20;;;;;;6160831;23;20168;-71
2022/04/02 02:03:57;;;;;;;4.27;3.97;;;16.40;41.20;;;;;;6161016;23;20173;-71
2022/04/02 02:06:25;;;;;;;4.80;4.50;;;16.40;41.80;;;;;;6164603;23;20221;-71
2022/04/02 02:08:53;;;;;;;5.07;4.70;;;16.40;41.30;;;;;;6173952;23;20177;-71
2022/04/02 02:11:22;;;;;;;4.93;4.53;;;16.40;41.80;;;;;;6188505;23;20176;-71
2022/04/02 02:14:06;;;;;;;4.60;4.20;;;16.40;41.30;;;;;;6187529;23;20226;-71
2022/04/02 02:16:34;;;;;;;4.55;4.25;;;16.40;41.40;;;;;;6161686;23;20202;-71
2022/04/02 02:19:01;;;;;;;5.15;4.75;;;16.40;41.20;;;;;;6160675;23;20172;-71
2022/04/02 02:21:28;;;;;;;4.95;4.55;;;16.40;41.40;;;;;;6160459;23;20176;-71
2022/04/02 02:23:56;;;;;;;4.60;4.30;;;16.40;41.40;;;;;;6186968;23;20684;-71
2022/04/02 02:26:24;;;;;;;4.63;4.32;;;16.30;41.20;;;;;;6184700;22;20252;-69
2022/04/02 02:28:51;;;;;;;5.00;4.60;;;16.40;41.40;;;;;;6222402;23;20171;-69
2022/04/02 02:31:31;;;;;;;4.68;4.28;;;16.30;41.30;;;;;;6222462;23;20166;-69
2022/04/02 02:36:52;;;;;;;4.35;4.05;;;16.40;41.20;;;;;;6205419;23;20528;-69
2022/04/02 02:39:20;;;;;;;4.70;4.40;;;16.30;41.30;;;;;;6192295;23;20172;-70
2022/04/02 02:42:01;;;;;;;5.00;4.60;;;16.30;41.20;;;;;;6191890;23;20166;-69
2022/04/02 02:44:36;;;;;;;4.60;4.30;;;16.30;41.10;;;;;;6192014;23;20210;-69
2022/04/02 02:47:19;;;;;;;4.50;4.20;;;16.30;41.20;;;;;;6218459;23;20191;-69
2022/04/02 02:49:46;;;;;;;4.38;4.07;;;16.30;41.50;;;;;;6192223;23;20474;-70
2022/04/02 02:52:20;;;;;;;4.35;4.05;;;16.30;41.50;;;;;;6191896;23;20166;-72
2022/04/02 02:54:48;;;;;;;4.40;4.10;;;16.30;41.30;;;;;;6191304;23;20190;-72
2022/04/02 02:57:15;;;;;;;4.25;3.95;;;16.30;41.40;;;;;;6191523;23;20654;-72
2022/04/02 02:59:43;;;;;;;4.70;4.30;;;16.30;41.10;;;;;;6218087;23;20167;-72
2022/04/02 03:02:14;;;;;;;4.35;4.05;;;16.30;41.10;;;;;;6192611;23;20474;-72
2022/04/02 03:04:46;;;;;;;4.22;3.92;;;16.20;41.60;;;;;;6191113;23;20258;-72
2022/04/02 03:07:20;;;;;;;4.75;4.38;;;16.30;40.90;;;;;;6191199;23;20214;-72
2022/04/02 03:09:47;;;;;;;4.53;4.22;;;16.30;40.60;;;;;;6191362;23;20618;-72
2022/04/02 03:12:16;;;;;;;4.63;4.22;;;16.30;40.80;;;;;;6191849;23;20206;-72
2022/04/02 03:14:43;;;;;;;4.25;3.95;;;16.30;40.80;;;;;;6191250;23;20237;-72
2022/04/02 03:17:10;;;;;;;4.03;3.72;;;16.20;40.90;;;;;;6191482;23;20195;-72
2022/04/02 03:19:39;;;;;;;4.28;3.90;;;16.20;40.90;;;;;;6191036;23;20250;-72
2022/04/02 03:22:08;;;;;;;4.18;3.88;;;16.20;40.90;;;;;;6191084;23;20187;-72
2022/04/02 03:24:36;;;;;;;3.83;3.53;;;16.30;40.80;;;;;;6192007;23;20175;-72
2022/04/02 03:27:07;;;;;;;3.97;3.67;;;16.20;40.90;;;;;;6191220;23;20203;-72
2022/04/02 03:29:41;;;;;;;4.05;3.75;;;16.30;41.60;;;;;;6191274;23;20170;-72
2022/04/02 03:32:13;;;;;;;4.35;3.95;;;16.20;41.00;;;;;;6191820;23;20168;-72
2022/04/02 03:34:40;;;;;;;4.18;3.88;;;16.20;40.80;;;;;;6193376;23;20475;-72
2022/04/02 03:37:09;;;;;;;4.22;3.83;;;16.30;41.00;;;;;;6190927;23;20202;-72
2022/04/02 03:39:36;;;;;;;3.70;3.40;;;16.30;41.00;;;;;;6190899;23;20255;-72
2022/04/02 03:42:04;;;;;;;3.90;3.50;;;16.30;41.00;;;;;;6191058;23;20242;-72
2022/04/02 03:44:32;;;;;;;3.80;3.50;;;16.30;41.10;;;;;;6190664;23;20198;-72
2022/04/02 03:47:11;;;;;;;3.70;3.40;;;16.30;41.00;;;;;;6191050;23;20663;-72
2022/04/02 03:49:51;;;;;;;3.83;3.47;;;16.30;41.00;;;;;;6190620;23;20247;-72
2022/04/02 03:52:32;;;;;;;4.00;3.40;;;16.30;41.10;;;;;;6190793;23;20250;-72
2022/04/02 03:55:08;;;;;;;3.65;3.35;;;16.30;41.20;;;;;;6190957;23;20503;-72
2022/04/02 03:57:36;;;;;;;4.75;3.88;;;16.30;41.10;;;;;;6190888;23;20199;-72
2022/04/02 04:00:07;;;;;;;3.75;3.42;;;16.30;40.60;;;;;;6190667;23;20175;-72
2022/04/02 04:02:40;;;;;;;3.90;3.60;;;16.30;40.90;;;;;;6192039;23;20201;-72
2022/04/02 04:05:10;;;;;;;4.50;3.55;;;16.30;40.80;;;;;;6190704;23;20184;-72
2022/04/02 04:07:41;;;;;;;3.97;3.45;;;16.30;40.70;;;;;;6190426;23;20191;-72
2022/04/02 04:10:09;;;;;;;3.38;3.17;;;16.30;40.60;;;;;;6191263;23;20171;-72
2022/04/02 04:12:37;;;;;;;3.83;3.53;;;16.30;40.80;;;;;;6191877;23;20563;-72
2022/04/02 04:15:08;;;;;;;3.67;3.35;;;16.30;40.60;;;;;;6190930;23;20246;-69
2022/04/02 04:17:36;;;;;;;3.88;3.58;;;16.30;40.40;;;;;;6192024;23;20258;-72
2022/04/02 04:20:06;;;;;;;3.58;3.28;;;16.30;40.50;;;;;;6191037;23;20181;-72
2022/04/02 04:22:34;;;;;;;3.85;3.45;;;16.40;40.80;;;;;;6191364;23;20176;-72
2022/04/02 04:25:03;;;;;;;3.53;3.20;;;16.40;40.20;;;;;;6191180;23;20211;-72
2022/04/02 04:27:33;;;;;;;3.65;3.30;;;16.40;40.60;;;;;;6190643;23;20198;-72
2022/04/02 04:30:00;;;;;;;3.78;3.33;;;16.50;40.60;;;;;;6190848;23;20171;-72
2022/04/02 04:32:28;;;;;;;4.70;3.47;;;16.50;40.40;;;;;;6191287;23;20181;-69
2022/04/02 04:34:55;;;;;;;4.43;3.47;;;16.50;40.00;;;;;;6190533;23;20198;-69
2022/04/02 04:37:22;;;;;;;3.72;3.40;;;16.50;39.90;;;;;;6190560;23;20194;-69
2022/04/02 04:39:49;;;;;;;3.78;3.47;;;16.60;39.90;;;;;;6211525;22;20202;-68
2022/04/02 04:42:19;;;;;;;4.10;3.57;;;16.60;39.70;;;;;;6221568;23;20408;-69
2022/04/02 04:44:46;;;;;;;3.95;3.33;;;16.60;39.90;;;;;;6220871;23;20463;-69
2022/04/02 04:47:15;;;;;;;4.75;3.90;;;16.60;40.40;;;;;;6200190;23;20198;-69
2022/04/02 04:49:49;;;;;;;3.97;3.58;;;16.60;40.00;;;;;;6192258;23;20171;-69
2022/04/02 04:52:16;;;;;;;3.53;3.22;;;16.60;40.80;;;;;;6192562;23;20548;-69
2022/04/02 04:54:43;;;;;;;3.95;3.58;;;16.60;41.00;;;;;;6192455;23;20627;-69
2022/04/02 04:57:14;;;;;;;3.75;3.45;;;16.60;40.90;;;;;;6192233;23;20188;-69
2022/04/02 04:59:50;;;;;;;3.60;3.30;;;16.60;40.60;;;;;;6193436;23;20559;-70
2022/04/02 05:02:20;;;;;;;4.78;3.42;;;16.70;41.00;;;;;;6193147;23;20206;-70
2022/04/02 05:04:48;;;;;;;4.30;3.35;;;16.70;41.20;;;;;;6192204;23;20225;-69
2022/04/02 05:07:17;;;;;;;4.85;3.50;;;16.70;41.20;;;;;;6192045;23;20199;-69
2022/04/02 05:09:46;;;;;;;4.72;3.42;;;16.70;41.30;;;;;;6192663;23;20658;-69
2022/04/02 05:12:15;;;;;;;3.80;3.45;;;16.70;41.40;;;;;;6192081;23;20175;-69
2022/04/02 05:14:46;;;;;;;3.60;3.30;;;16.80;41.50;;;;;;6192094;23;20213;-69
2022/04/02 05:17:18;;;;;;;3.78;3.47;;;16.80;41.50;;;;;;6193152;23;20187;-70
2022/04/02 05:19:47;;;;;;;3.50;3.20;;;16.80;41.40;;;;;;6190834;22;20187;-67
2022/04/02 05:53:36;;;;;;;3.35;3.13;;;17.00;39.80;;;;;;6207419;22;20210;-70
2022/04/02 05:56:04;;;;;;;3.92;3.53;;;17.00;39.60;;;;;;6215332;23;20537;-70
2022/04/02 05:58:31;;;;;;;3.47;3.10;;;17.00;39.90;;;;;;6190667;23;20175;-70
2022/04/02 06:00:58;;;;;;;3.28;2.97;;;17.10;39.90;;;;;;6190835;23;20595;-70
2022/04/02 06:03:25;;;;;;;3.22;2.92;;;17.10;39.70;;;;;;6191094;23;20615;-70
2022/04/02 06:05:52;;;;;;;3.85;3.33;;;17.10;39.50;;;;;;6191056;23;20755;-70
2022/04/02 06:08:20;;;;;;;4.10;3.03;;;17.10;39.50;;;;;;6217422;23;20164;-70
2022/04/02 06:10:49;;;;;;;3.28;2.70;;;17.10;39.60;;;;;;6190317;23;20221;-70
2022/04/02 06:13:16;;;;;;;3.33;3.03;;;17.10;39.40;;;;;;6190308;23;20175;-70
2022/04/02 06:15:43;;;;;;;3.30;3.00;;;17.10;39.50;;;;;;6190452;23;20671;-71
2022/04/02 06:18:11;;;;;;;3.00;2.80;;;17.10;39.50;;;;;;6190144;23;20230;-70
2022/04/02 06:20:39;;;;;;;2.75;2.55;;;17.10;39.50;;;;;;6190324;23;20573;-70
2022/04/02 06:23:06;;;;;;;3.15;2.85;;;17.10;39.30;;;;;;6190435;23;20167;-70
2022/04/02 06:25:33;;;;;;;3.00;2.80;;;17.10;39.50;;;;;;6190285;23;20537;-70
2022/04/02 06:28:02;;;;;;;2.88;2.58;;;17.10;39.30;;;;;;6190386;23;20179;-70
2022/04/02 06:30:29;;;;;;;2.67;2.47;;;17.20;39.30;;;;;;6190217;23;20172;-70
2022/04/02 06:32:57;;;;;;;3.10;2.90;;;17.20;39.20;;;;;;6190305;23;20202;-70
2022/04/02 06:35:25;;;;;;;3.40;2.60;;;17.20;39.00;;;;;;6216905;23;20183;-70
2022/04/02 06:37:54;;;;;;;2.90;2.70;;;17.20;39.10;;;;;;6190090;23;20195;-71
2022/04/02 06:40:22;;;;;;;2.53;2.42;;;17.20;39.00;;;;;;6190362;23;20207;-71
2022/04/02 06:42:49;;;;;;;2.67;2.58;;;17.20;39.00;;;;;;6216685;23;20166;-70
2022/04/02 06:45:27;;;;;;;3.38;2.78;;;17.20;39.00;;;;;;6190200;23;20167;-70
2022/04/02 06:47:55;;;;;;;2.95;2.75;;;17.20;39.10;;;;;;6189844;23;20196;-70
2022/04/02 06:50:24;;;;;;;2.70;2.50;;;17.20;38.70;;;;;;6189970;23;20175;-70
2022/04/02 06:52:51;;;;;;;2.85;2.65;;;17.20;38.70;;;;;;6189929;23;20176;-70
2022/04/02 06:55:18;;;;;;;2.50;2.40;;;17.20;38.50;;;;;;6190192;23;20183;-70
2022/04/02 06:57:46;;;;;;;2.70;2.50;;;17.20;38.80;;;;;;6189860;23;20198;-71
2022/04/02 07:00:15;;;;;;;3.15;2.80;;;17.30;38.80;;;;;;6216442;23;20512;-70
2022/04/02 07:02:43;;;;;;;2.60;2.40;;;17.20;38.60;;;;;;6189554;23;20179;-70
2022/04/02 07:05:10;;;;;;;2.92;2.67;;;17.30;38.70;;;;;;6189990;23;20195;-71
2022/04/02 07:07:38;;;;;;;3.88;2.72;;;17.30;38.90;;;;;;6189472;23;20203;-70
2022/04/02 07:10:06;;;;;;;2.95;2.72;;;17.30;38.50;;;;;;6189371;23;20229;-70
2022/04/02 07:12:34;;;;;;;2.67;2.47;;;17.30;38.40;;;;;;6189719;23;20202;-70
2022/04/02 07:15:01;;;;;;;2.60;2.40;;;17.30;38.40;;;;;;6216735;23;20274;-70
2022/04/02 07:17:29;;;;;;;2.70;2.50;;;17.30;38.30;;;;;;6189466;23;20362;-70
2022/04/02 07:19:59;;;;;;;2.70;2.50;;;17.30;38.10;;;;;;6189906;23;20179;-70
2022/04/02 07:22:26;;;;;;;2.30;2.20;;;17.30;38.30;;;;;;6216292;23;20191;-70
2022/04/02 07:24:54;;;;;;;2.65;2.45;;;17.30;38.20;;;;;;6189727;23;20176;-70
2022/04/02 07:27:23;;;;;;;2.90;2.70;;;17.30;38.40;;;;;;6189900;23;20230;-71
2022/04/02 07:29:51;;;;;;;2.72;2.53;;;17.30;38.00;;;;;;6189493;23;20335;-70
2022/04/02 07:32:19;;;;;;;3.05;2.63;;;17.30;38.10;;;;;;6189621;23;20258;-70
2022/04/02 07:34:46;;;;;;;2.55;2.35;;;17.40;38.10;;;;;;6189265;23;20611;-71
2022/04/02 07:37:18;;;;;;;2.40;2.30;;;17.40;38.20;;;;;;6189621;23;20244;-70
2022/04/02 07:39:49;;;;;;;3.00;2.80;;;17.40;37.80;;;;;;6189555;23;20220;-70
2022/04/02 07:42:21;;;;;;;2.95;2.50;;;17.40;37.90;;;;;;6189647;23;20168;-70
2022/04/02 07:45:02;;;;;;;3.00;2.80;;;17.40;38.10;;;;;;6189622;23;20313;-70
2022/04/02 07:47:31;;;;;;;2.85;2.60;;;17.40;37.90;;;;;;6189280;23;20199;-70
2022/04/02 07:50:00;;;;;;;2.67;2.47;;;17.40;37.90;;;;;;6189393;23;20175;-70
2022/04/02 07:52:30;;;;;;;4.13;2.88;;;17.50;37.80;;;;;;6189693;23;20271;-70
2022/04/02 07:54:58;;;;;;;2.72;2.53;;;17.50;38.00;;;;;;6189680;23;20189;-70
2022/04/02 07:57:25;;;;;;;2.92;2.72;;;17.50;38.00;;;;;;6189639;23;20655;-70
2022/04/02 07:59:58;;;;;;;2.70;2.50;;;17.50;38.00;;;;;;6189982;23;20191;-70
2022/04/02 08:02:37;;;;;;;2.80;2.40;;;17.50;37.80;;;;;;6189747;23;20194;-70
2022/04/02 08:05:05;;;;;;;2.78;2.58;;;17.50;38.00;;;;;;6190349;23;20167;-70
2022/04/02 08:07:35;;;;;;;2.70;2.50;;;17.50;37.90;;;;;;6216199;23;20229;-70
2022/04/02 08:10:05;;;;;;;2.80;2.60;;;17.50;38.00;;;;;;6189811;23;20176;-70
2022/04/02 08:12:33;;;;;;;2.90;2.70;;;17.50;37.80;;;;;;6189627;23;20278;-70
2022/04/02 08:15:00;;;;;;;2.78;2.50;;;17.50;37.80;;;;;;6189463;23;20178;-71
2022/04/02 08:17:27;;;;;;;2.65;2.50;;;17.50;38.00;;;;;;6189320;23;20682;-70
2022/04/02 08:19:59;;;;;;;2.78;2.58;;;17.50;37.90;;;;;;6190082;23;20167;-70
2022/04/02 08:22:27;;;;;;;2.40;2.30;;;17.50;37.80;;;;;;6188958;23;20171;-70
2022/04/02 08:24:55;;;;;;;2.72;2.53;;;17.50;37.60;;;;;;6216263;23;20168;-70
2022/04/02 08:27:30;;;;;;;2.35;2.20;;;17.60;37.80;;;;;;6189429;23;20230;-70
2022/04/02 08:30:03;;;;;;;2.35;2.25;;;17.60;37.80;;;;;;6216414;23;20591;-70
2022/04/02 08:32:52;;;;;;;2.38;2.17;;;17.50;37.50;;;;;;6189540;23;20164;-70
2022/04/02 08:35:21;;;;;;;2.75;2.55;;;17.50;37.80;;;;;;6190049;23;20164;-70
2022/04/02 08:38:19;;;;;;;2.85;2.65;;;17.50;37.80;;;;;;6189597;23;20194;-71
2022/04/02 08:41:22;;;;;;;2.80;2.60;;;17.50;37.60;;;;;;6161528;23;20179;-70
2022/04/02 08:44:13;;;;;;;2.55;2.35;;;17.50;37.50;;;;;;6153108;23;20171;-70
2022/04/02 08:46:50;;;;;;;2.83;2.63;;;17.60;37.50;;;;;;6189170;23;20192;-70
2022/04/02 08:49:22;;;;;;;2.55;2.35;;;17.60;37.50;;;;;;6189860;23;20167;-70
2022/04/02 08:52:01;;;;;;;2.47;2.38;;;17.60;37.50;;;;;;6189467;23;20233;-71
2022/04/02 08:54:29;;;;;;;2.53;2.33;;;17.60;37.40;;;;;;6189733;23;20206;-70
2022/04/02 08:56:57;;;;;;;2.70;2.50;;;17.60;37.60;;;;;;6189336;23;20191;-70
2022/04/02 08:59:34;;;;;;;2.80;2.60;;;17.60;37.20;;;;;;6189312;23;20182;-70
2022/04/02 09:02:13;;;;;;;2.45;2.25;;;17.60;37.40;;;;;;6216338;23;20163;-70
2022/04/02 09:05:09;;;;;;;2.40;2.30;;;17.60;37.50;;;;;;6189591;23;20246;-70
2022/04/02 09:08:22;;;;;;;2.17;2.08;;;17.60;37.40;;;;;;6189935;23;20192;-70
2022/04/02 09:11:18;;;;;;;2.60;2.40;;;17.70;37.30;;;;;;6191393;23;20175;-71
2022/04/02 09:14:08;;;;;;;2.47;2.30;;;17.70;37.30;;;;;;6194469;23;20168;-70
2022/04/02 09:16:43;;;;;;;2.67;2.47;;;17.70;37.80;;;;;;6192659;23;20191;-71
2022/04/02 09:19:16;;;;;;;2.75;2.55;;;17.70;37.30;;;;;;6190790;23;20191;-70
2022/04/02 09:21:57;;;;;;;2.65;2.45;;;17.70;37.00;;;;;;6190697;23;20253;-71
2022/04/02 09:24:39;;;;;;;2.80;2.60;;;17.70;37.30;;;;;;6189991;23;20164;-70
2022/04/02 09:27:41;;;;;;;2.58;2.38;;;17.70;37.00;;;;;;6189497;23;20218;-71
2022/04/02 09:30:10;;;;;;;2.45;2.28;;;17.70;37.20;;;;;;6190077;23;20170;-70
2022/04/02 09:33:03;;;;;;;2.60;2.40;;;17.70;37.10;;;;;;6189730;23;20175;-70
2022/04/02 09:35:41;;;;;;;2.90;2.70;;;17.70;37.30;;;;;;6191642;23;20175;-70
2022/04/02 09:38:38;;;;;;;3.97;2.85;;;17.80;37.30;;;;;;6191271;23;20198;-71
2022/04/02 09:41:19;;;;;;;2.60;2.40;;;17.70;37.10;;;;;;6191076;23;20167;-70
2022/04/02 09:43:50;;;;;;;2.70;2.50;;;17.80;37.00;;;;;;6218842;23;20645;-70
2022/04/02 09:46:29;;;;;;;2.78;2.58;;;17.70;37.10;;;;;;6191358;23;20187;-71
2022/04/02 09:49:00;;;;;;;3.03;2.83;;;17.70;37.10;;;;;;6191259;23;20167;-70
2022/04/02 09:51:31;;;;;;;2.80;2.60;;;17.80;37.00;;;;;;6191420;23;20174;-70
2022/04/02 09:54:03;;;;;;;2.60;2.40;;;17.80;37.10;;;;;;6191109;23;20183;-70
2022/04/02 09:56:35;;;;;;;2.38;2.28;;;17.70;37.10;;;;;;6191303;23;20195;-71
2022/04/02 09:59:06;;;;;;;2.63;2.40;;;17.70;37.10;;;;;;6191279;23;20619;-71
2022/04/02 10:01:38;;;;;;;2.83;2.63;;;17.80;37.30;;;;;;6217517;23;20172;-71
2022/04/02 10:04:21;;;;;;;2.72;2.53;;;17.80;37.10;;;;;;6217555;23;20152;-70
2022/04/02 10:06:49;;;;;;;2.90;2.70;;;17.80;37.30;;;;;;6190898;23;20195;-70
2022/04/02 10:09:18;;;;;;;2.83;2.63;;;17.70;36.90;;;;;;6218223;23;20168;-70
2022/04/02 10:11:49;;;;;;;3.25;2.67;;;17.70;37.00;;;;;;6190514;23;20172;-70
2022/04/02 10:14:19;;;;;;;2.85;2.65;;;17.80;37.00;;;;;;6191341;23;20168;-70
2022/04/02 10:16:49;;;;;;;2.90;2.70;;;17.80;37.10;;;;;;6217448;23;20498;-70
2022/04/02 10:19:17;;;;;;;2.92;2.72;;;17.80;36.90;;;;;;6191333;23;20179;-70
2022/04/02 10:21:46;;;;;;;3.58;2.85;;;17.80;36.70;;;;;;6217533;23;20187;-71
2022/04/02 10:24:22;;;;;;;2.92;2.72;;;17.80;37.40;;;;;;6217727;23;20168;-70
2022/04/02 10:26:51;;;;;;;2.88;2.67;;;17.80;36.90;;;;;;6217364;23;20187;-71
2022/04/02 10:29:31;;;;;;;2.70;2.50;;;17.80;36.90;;;;;;6190873;23;20171;-70
2022/04/02 10:32:01;;;;;;;2.65;2.45;;;17.80;36.80;;;;;;6191211;23;20201;-70
2022/04/02 10:34:41;;;;;;;2.90;2.70;;;17.70;36.80;;;;;;6217534;23;20246;-71
2022/04/02 10:37:10;;;;;;;3.10;2.90;;;17.80;36.90;;;;;;6191173;23;20210;-70
2022/04/02 10:39:38;;;;;;;3.00;2.80;;;17.70;36.90;;;;;;6190769;23;20271;-70
2022/04/02 10:42:06;;;;;;;2.88;2.65;;;17.70;36.50;;;;;;6191248;23;20175;-70
2022/04/02 10:44:37;;;;;;;3.10;2.90;;;17.80;36.90;;;;;;6190913;23;20167;-71
2022/04/02 10:47:04;;;;;;;2.92;2.72;;;17.80;36.90;;;;;;6190896;23;20195;-70
2022/04/02 10:49:36;;;;;;;2.72;2.53;;;17.70;36.60;;;;;;6191132;23;20179;-70
2022/04/02 10:52:03;;;;;;;2.80;2.60;;;17.70;36.70;;;;;;6193308;23;20222;-70
2022/04/02 10:54:30;;;;;;;2.75;2.58;;;17.70;36.70;;;;;;6208463;23;20181;-71
2022/04/02 10:56:58;;;;;;;2.88;2.67;;;17.80;36.90;;;;;;6193778;23;20192;-71
2022/04/02 10:59:30;;;;;;;3.20;2.90;;;17.80;36.70;;;;;;6219504;23;20163;-71
2022/04/02 11:01:59;;;;;;;2.95;2.67;;;17.80;36.60;;;;;;6220763;23;20240;-70
2022/04/02 11:04:30;;;;;;;2.97;2.78;;;17.80;36.90;;;;;;6192885;23;20183;-70
2022/04/02 11:06:58;;;;;;;3.05;2.85;;;17.80;36.70;;;;;;6191758;23;20192;-71
2022/04/02 11:09:30;;;;;;;2.90;2.70;;;17.80;36.70;;;;;;6218284;23;20167;-70
2022/04/02 11:12:05;;;;;;;2.90;2.70;;;17.80;36.70;;;;;;6217566;23;20246;-70
2022/04/02 11:14:38;;;;;;;3.20;3.00;;;17.80;36.50;;;;;;6217660;23;20151;-70
2022/04/02 11:17:05;;;;;;;2.80;2.60;;;17.80;36.50;;;;;;6190581;23;20659;-70
2022/04/02 11:22:25;;;;;;;3.03;2.80;;;17.80;36.50;;;;;;6190428;23;20178;-70
2022/04/02 11:25:03;;;;;;;3.28;2.97;;;17.80;36.30;;;;;;6190636;23;20178;-70
2022/04/02 11:27:30;;;;;;;2.90;2.70;;;17.80;36.40;;;;;;6190154;23;20217;-70
2022/04/02 11:30:03;;;;;;;3.22;3.03;;;17.80;36.20;;;;;;6190604;23;20515;-70
2022/04/02 11:32:41;;;;;;;3.47;3.17;;;17.80;36.20;;;;;;6190852;23;20168;-70
2022/04/02 11:35:09;;;;;;;3.15;2.95;;;17.80;36.50;;;;;;6190125;23;20225;-70
2022/04/02 11:37:46;;;;;;;3.40;3.10;;;17.80;36.30;;;;;;6189912;23;20199;-70
2022/04/02 11:40:15;;;;;;;3.17;2.97;;;17.90;36.30;;;;;;6189978;23;20171;-70
2022/04/02 11:42:46;;;;;;;3.00;2.80;;;17.90;35.90;;;;;;6190092;23;20197;-71
2022/04/02 11:47:59;;;;;;;3.35;3.15;;;18.00;36.30;;;;;;6189167;23;20655;-71
2022/04/02 11:50:28;;;;;;;3.53;3.03;;;18.00;35.80;;;;;;6216558;23;20152;-70
2022/04/02 11:52:57;;;;;;;3.45;3.15;;;18.00;35.90;;;;;;6209523;22;20510;-69
2022/04/02 11:55:25;;;;;;;4.75;3.20;;;18.10;36.00;;;;;;6246882;22;20165;-69
2022/04/02 11:58:03;;;;;;;3.47;3.17;;;18.00;36.00;;;;;;6191588;23;20188;-70
2022/04/02 12:00:31;;;;;;;3.42;3.17;;;18.00;35.90;;;;;;6189669;23;20164;-69
2022/04/02 12:02:58;;;;;;;3.20;2.90;;;18.10;35.90;;;;;;6189951;23;20174;-69
2022/04/02 12:05:41;;;;;;;2.60;2.40;;;18.00;36.00;;;;;;6216273;23;20169;-69
2022/04/02 12:08:10;;;;;;;4.32;3.47;;;18.00;37.00;;;;;;6209347;22;20264;-70
2022/04/02 12:10:47;;;;;;;4.35;3.20;;;18.00;36.40;;;;;;6221090;23;20171;-71
2022/04/02 12:13:14;;;;;;;5.05;3.10;;;18.00;36.60;;;;;;6220792;23;20166;-71
2022/04/02 12:15:41;;;;;;;4.22;3.22;;;18.00;36.90;;;;;;6218581;23;20171;-70
2022/04/02 12:18:08;;;;;;;4.97;3.00;;;18.00;37.40;;;;;;6189226;23;20174;-71
2022/04/02 12:20:37;;;;;;;3.63;3.20;;;18.10;37.80;;;;;;6189465;23;20167;-71
2022/04/02 12:23:12;;;;;;;3.38;3.00;;;18.00;37.70;;;;;;6189234;23;20178;-70
2022/04/02 12:25:40;;;;;;;3.38;3.08;;;18.10;37.50;;;;;;6215707;23;20479;-71
2022/04/02 12:28:12;;;;;;;3.40;3.20;;;18.10;37.90;;;;;;6189354;23;20195;-70
2022/04/02 12:30:41;;;;;;;3.15;2.92;;;18.20;38.00;;;;;;6189161;23;20589;-71
2022/04/02 12:33:11;;;;;;;3.38;3.17;;;18.20;38.30;;;;;;6220446;22;20516;-70
2022/04/02 12:35:38;;;;;;;3.58;3.28;;;18.20;37.80;;;;;;6219035;23;20174;-71
2022/04/02 12:38:06;;;;;;;3.85;3.55;;;18.20;38.60;;;;;;6189117;23;20171;-71
2022/04/02 12:40:40;;;;;;;3.50;3.20;;;18.20;38.40;;;;;;6189095;23;20176;-70
2022/04/02 12:43:09;;;;;;;3.78;3.40;;;18.20;38.80;;;;;;6189418;23;20160;-71
2022/04/02 12:45:37;;;;;;;3.40;3.20;;;18.20;38.70;;;;;;6189365;23;20178;-71
2022/04/02 12:48:05;;;;;;;3.60;3.30;;;18.20;39.00;;;;;;6189238;23;20666;-71
2022/04/02 12:50:33;;;;;;;3.28;2.97;;;18.20;39.30;;;;;;6215745;23;20175;-71
2022/04/02 12:53:01;;;;;;;3.63;3.33;;;18.20;39.20;;;;;;6189095;23;20180;-71
2022/04/02 12:55:29;;;;;;;3.90;3.50;;;18.20;39.10;;;;;;6189089;23;20619;-71
2022/04/02 12:58:00;;;;;;;3.97;3.67;;;18.20;39.70;;;;;;6189588;23;20191;-71
2022/04/02 13:00:30;;;;;;;5.47;3.38;;;18.20;39.20;;;;;;6189480;23;20174;-71
2022/04/02 13:02:58;;;;;;;3.63;3.40;;;18.20;39.70;;;;;;6215433;23;20168;-71
2022/04/02 13:05:26;;;;;;;4.22;3.42;;;18.20;39.60;;;;;;6188942;23;20179;-71
2022/04/02 13:08:04;;;;;;;3.72;3.42;;;18.20;39.70;;;;;;6188925;23;20199;-71
2022/04/02 13:10:31;;;;;;;5.00;3.40;;;18.30;39.80;;;;;;6192027;23;20195;-71
2022/04/02 13:13:03;;;;;;;4.00;3.70;;;18.30;40.30;;;;;;6217782;23;20174;-71
2022/04/02 13:15:30;;;;;;;3.70;3.35;;;18.30;39.60;;;;;;6191630;23;20222;-72
2022/04/02 13:20:42;;;;;;;3.70;3.40;;;18.30;40.00;;;;;;6191246;23;20168;-70
2022/04/02 13:23:09;;;;;;;3.40;3.10;;;18.30;39.90;;;;;;6190937;23;20607;-70
2022/04/02 13:25:42;;;;;;;4.70;3.17;;;18.40;40.00;;;;;;6190743;23;20175;-71
2022/04/02 13:28:35;;;;;;;3.42;3.13;;;18.40;40.60;;;;;;6191408;23;20259;-71
2022/04/02 13:31:02;;;;;;;3.45;3.20;;;18.40;40.00;;;;;;6181619;23;20202;-71
2022/04/02 13:33:56;;;;;;;4.28;3.50;;;18.40;40.00;;;;;;6190953;23;20179;-71
2022/04/02 13:36:34;;;;;;;3.83;3.50;;;18.40;40.00;;;;;;6191176;23;20195;-71
2022/04/02 13:39:02;;;;;;;3.83;3.40;;;18.40;40.00;;;;;;6217671;23;20151;-71
2022/04/02 13:41:33;;;;;;;3.95;3.40;;;18.40;40.00;;;;;;6191135;23;20175;-71
2022/04/02 13:44:02;;;;;;;3.67;3.38;;;18.50;40.10;;;;;;6191102;23;20258;-71
2022/04/02 13:46:29;;;;;;;3.42;3.17;;;18.40;39.90;;;;;;6190616;23;20538;-71
2022/04/02 13:49:00;;;;;;;3.05;2.85;;;18.40;39.70;;;;;;6190805;23;20267;-71
2022/04/02 13:51:43;;;;;;;3.60;3.30;;;18.40;40.00;;;;;;6190710;23;20177;-71